createdAt,value
2019-03-31T00:00:04.024Z,1020.39
2019-03-31T00:01:08.876Z,1020.39
2019-03-31T00:02:01.954Z,1020.39
2019-03-31T00:03:02.151Z,1020.49
2019-03-31T00:04:02.439Z,1020.49
2019-03-31T00:05:02.348Z,1020.49
2019-03-31T00:06:06.084Z,1020.49
2019-03-31T00:07:01.733Z,1020.41
2019-03-31T00:08:01.958Z,1020.41
2019-03-31T00:09:02.229Z,1020.41
2019-03-31T00:10:02.511Z,1020.41
2019-03-31T00:11:01.776Z,1020.39
2019-03-31T00:12:01.963Z,1020.39
2019-03-31T00:13:02.256Z,1020.39
2019-03-31T00:14:02.536Z,1020.39
2019-03-31T00:15:01.733Z,1020.52
2019-03-31T00:16:01.941Z,1020.52
2019-03-31T00:17:02.219Z,1020.52
2019-03-31T00:18:02.422Z,1020.52
2019-03-31T00:19:01.670Z,1020.56
2019-03-31T00:20:01.815Z,1020.56
2019-03-31T00:21:02.024Z,1020.56
2019-03-31T00:22:02.320Z,1020.56
2019-03-31T00:23:02.499Z,1020.49
2019-03-31T00:24:01.860Z,1020.49
2019-03-31T00:25:02.104Z,1020.49
2019-03-31T00:26:02.318Z,1020.49
2019-03-31T00:27:02.518Z,1020.52
2019-03-31T00:28:01.706Z,1020.52
2019-03-31T00:29:02.020Z,1020.52
2019-03-31T00:30:01.875Z,1020.52
2019-03-31T00:31:01.774Z,1020.54
2019-03-31T00:32:02.059Z,1020.54
2019-03-31T00:33:02.249Z,1020.54
2019-03-31T00:34:02.528Z,1020.54
2019-03-31T00:35:01.684Z,1020.62
2019-03-31T00:36:01.900Z,1020.62
2019-03-31T00:37:02.085Z,1020.62
2019-03-31T00:38:02.279Z,1020.62
2019-03-31T00:39:02.528Z,1020.63
2019-03-31T00:40:01.743Z,1020.63
2019-03-31T00:41:01.908Z,1020.63
2019-03-31T00:42:02.063Z,1020.63
2019-03-31T00:43:02.288Z,1020.77
2019-03-31T00:44:02.601Z,1020.77
2019-03-31T00:45:01.740Z,1020.77
2019-03-31T00:46:02.017Z,1020.77
2019-03-31T00:47:02.810Z,1020.79
2019-03-31T00:48:01.699Z,1020.79
2019-03-31T00:49:01.928Z,1020.79
2019-03-31T00:50:02.214Z,1020.79
2019-03-31T00:51:02.499Z,1020.72
2019-03-31T00:52:01.667Z,1020.72
2019-03-31T00:53:01.945Z,1020.72
2019-03-31T00:54:02.278Z,1020.72
2019-03-31T00:55:02.451Z,1020.7
2019-03-31T00:56:01.710Z,1020.7
2019-03-31T00:57:02.004Z,1020.7
2019-03-31T00:58:02.185Z,1020.7
2019-03-31T00:59:02.452Z,1020.86
2019-03-31T01:00:06.337Z,1020.86
2019-03-31T01:01:02.219Z,1020.86
2019-03-31T01:02:02.512Z,1020.86
2019-03-31T01:03:01.653Z,1020.72
2019-03-31T01:04:01.911Z,1020.72
2019-03-31T01:05:02.130Z,1020.72
2019-03-31T01:06:02.323Z,1020.72
2019-03-31T01:07:02.617Z,1020.77
2019-03-31T01:08:01.720Z,1020.77
2019-03-31T01:09:01.954Z,1020.77
2019-03-31T01:10:02.256Z,1020.77
2019-03-31T01:11:02.460Z,1020.79
2019-03-31T01:12:01.808Z,1020.79
2019-03-31T01:13:01.932Z,1020.79
2019-03-31T01:14:02.194Z,1020.79
2019-03-31T01:15:02.583Z,1020.77
2019-03-31T01:16:01.801Z,1020.77
2019-03-31T01:17:01.987Z,1020.77
2019-03-31T01:18:02.304Z,1020.77
2019-03-31T01:19:02.513Z,1020.81
2019-03-31T01:20:01.703Z,1020.81
2019-03-31T01:21:01.877Z,1020.81
2019-03-31T01:22:02.137Z,1020.81
2019-03-31T01:23:01.903Z,1020.87
2019-03-31T01:24:02.149Z,1020.87
2019-03-31T01:25:02.367Z,1020.87
2019-03-31T01:26:01.620Z,1020.87
2019-03-31T01:27:01.840Z,1020.85
2019-03-31T01:28:02.076Z,1020.85
2019-03-31T01:29:02.380Z,1020.85
2019-03-31T01:30:02.558Z,1020.85
2019-03-31T01:31:01.773Z,1020.87
2019-03-31T01:32:02.019Z,1020.87
2019-03-31T01:33:02.367Z,1020.87
2019-03-31T01:34:02.502Z,1020.91
2019-03-31T01:35:01.677Z,1020.91
2019-03-31T01:36:01.972Z,1020.91
2019-03-31T01:37:02.159Z,1020.91
2019-03-31T01:38:02.412Z,1021.06
2019-03-31T01:39:02.540Z,1021.06
2019-03-31T01:40:01.810Z,1021.06
2019-03-31T01:41:02.079Z,1021.06
2019-03-31T01:42:02.277Z,1021.02
2019-03-31T01:43:02.549Z,1021.02
2019-03-31T01:44:01.761Z,1021.02
2019-03-31T01:45:01.984Z,1021.02
2019-03-31T01:46:02.176Z,1020.97
2019-03-31T01:47:02.354Z,1020.97
2019-03-31T01:48:01.792Z,1020.97
2019-03-31T01:49:01.798Z,1020.97
2019-03-31T01:50:02.037Z,1021.06
2019-03-31T01:51:02.267Z,1021.06
2019-03-31T01:52:02.500Z,1021.06
2019-03-31T01:53:01.722Z,1021.06
2019-03-31T01:54:01.827Z,1021.02
2019-03-31T01:55:02.215Z,1021.02
2019-03-31T01:56:02.446Z,1021.02
2019-03-31T01:57:01.670Z,1021.02
2019-03-31T01:58:01.999Z,1021.16
2019-03-31T01:59:02.078Z,1021.16
2019-03-31T02:00:04.165Z,1021.16
2019-03-31T02:01:02.038Z,1021.16
2019-03-31T02:02:05.006Z,1021.19
2019-03-31T02:03:02.541Z,1021.19
2019-03-31T02:04:01.809Z,1021.19
2019-03-31T02:05:02.004Z,1021.19
2019-03-31T02:06:02.137Z,1021.11
2019-03-31T02:07:02.386Z,1021.11
2019-03-31T02:08:02.608Z,1021.11
2019-03-31T02:09:01.807Z,1021.11
2019-03-31T02:10:02.130Z,1021.07
2019-03-31T02:11:02.323Z,1021.07
2019-03-31T02:12:02.463Z,1021.07
2019-03-31T02:13:01.750Z,1021.07
2019-03-31T02:14:01.973Z,1021.17
2019-03-31T02:15:02.172Z,1021.17
2019-03-31T02:16:02.391Z,1021.17
2019-03-31T02:17:02.567Z,1021.17
2019-03-31T02:18:01.798Z,1021.14
2019-03-31T02:19:01.700Z,1021.14
2019-03-31T02:20:02.544Z,1021.14
2019-03-31T02:21:01.666Z,1021.14
2019-03-31T02:22:01.895Z,1021.2
2019-03-31T02:23:02.212Z,1021.2
2019-03-31T02:24:02.386Z,1021.2
2019-03-31T02:25:01.659Z,1021.2
2019-03-31T02:26:01.819Z,1021.11
2019-03-31T02:27:02.126Z,1021.11
2019-03-31T02:28:02.366Z,1021.11
2019-03-31T02:29:02.529Z,1021.11
2019-03-31T02:30:02.160Z,1021.15
2019-03-31T02:31:02.020Z,1021.15
2019-03-31T02:32:02.185Z,1021.15
2019-03-31T02:33:02.591Z,1021.15
2019-03-31T02:34:02.626Z,1021.23
2019-03-31T02:35:02.002Z,1021.23
2019-03-31T02:36:02.108Z,1021.23
2019-03-31T02:37:02.279Z,1021.23
2019-03-31T02:38:02.488Z,1021.22
2019-03-31T02:39:01.652Z,1021.22
2019-03-31T02:40:01.957Z,1021.22
2019-03-31T02:41:02.105Z,1021.22
2019-03-31T02:42:02.345Z,1021.15
2019-03-31T02:43:02.538Z,1021.15
2019-03-31T02:44:01.693Z,1021.15
2019-03-31T02:45:02.002Z,1021.15
2019-03-31T02:46:02.202Z,1021.22
2019-03-31T02:47:02.362Z,1021.22
2019-03-31T02:48:02.612Z,1021.22
2019-03-31T02:49:01.882Z,1021.22
2019-03-31T02:50:02.175Z,1021.3
2019-03-31T02:51:02.353Z,1021.3
2019-03-31T02:52:02.446Z,1021.3
2019-03-31T02:53:01.658Z,1021.3
2019-03-31T02:54:01.877Z,1021.15
2019-03-31T02:55:02.318Z,1021.15
2019-03-31T02:56:02.408Z,1021.15
2019-03-31T02:57:02.622Z,1021.15
2019-03-31T02:58:01.875Z,1021.1
2019-03-31T02:59:02.122Z,1021.1
2019-03-31T03:00:02.319Z,1021.1
2019-03-31T03:01:02.058Z,1021.1
2019-03-31T03:02:02.207Z,1021.17
2019-03-31T03:03:02.460Z,1021.17
2019-03-31T03:04:01.820Z,1021.17
2019-03-31T03:05:20.538Z,1021.17
2019-03-31T03:06:02.227Z,1021.2
2019-03-31T03:07:02.320Z,1021.2
2019-03-31T03:08:02.302Z,1021.2
2019-03-31T03:09:02.624Z,1021.2
2019-03-31T03:10:01.918Z,1021.18
2019-03-31T03:11:01.946Z,1021.18
2019-03-31T03:12:02.271Z,1021.18
2019-03-31T03:13:02.542Z,1021.18
2019-03-31T03:14:01.699Z,1021.35
2019-03-31T03:15:01.949Z,1021.35
2019-03-31T03:16:02.176Z,1021.35
2019-03-31T03:17:02.510Z,1021.37
2019-03-31T03:18:01.667Z,1021.37
2019-03-31T03:19:01.914Z,1021.37
2019-03-31T03:20:02.143Z,1021.37
2019-03-31T03:21:02.424Z,1021.42
2019-03-31T03:22:02.637Z,1021.42
2019-03-31T03:23:01.813Z,1021.42
2019-03-31T03:24:02.053Z,1021.42
2019-03-31T03:25:02.382Z,1021.44
2019-03-31T03:26:02.435Z,1021.44
2019-03-31T03:27:01.908Z,1021.44
2019-03-31T03:28:01.918Z,1021.44
2019-03-31T03:29:02.367Z,1021.27
2019-03-31T03:30:02.551Z,1021.27
2019-03-31T03:31:02.008Z,1021.27
2019-03-31T03:32:01.910Z,1021.27
2019-03-31T03:33:18.045Z,1021.38
2019-03-31T03:34:02.418Z,1021.38
2019-03-31T03:35:02.525Z,1021.38
2019-03-31T03:36:01.671Z,1021.38
2019-03-31T03:37:01.954Z,1021.31
2019-03-31T03:38:02.063Z,1021.31
2019-03-31T03:39:02.286Z,1021.31
2019-03-31T03:40:02.547Z,1021.31
2019-03-31T03:41:01.772Z,1021.28
2019-03-31T03:42:01.969Z,1021.28
2019-03-31T03:43:02.162Z,1021.28
2019-03-31T03:44:03.248Z,1021.28
2019-03-31T03:45:02.655Z,1021.44
2019-03-31T03:46:01.888Z,1021.44
2019-03-31T03:47:02.200Z,1021.44
2019-03-31T03:48:02.581Z,1021.44
2019-03-31T03:49:02.735Z,1021.5
2019-03-31T03:50:02.012Z,1021.5
2019-03-31T03:51:02.118Z,1021.5
2019-03-31T03:52:02.381Z,1021.5
2019-03-31T03:53:02.634Z,1021.54
2019-03-31T03:54:01.785Z,1021.54
2019-03-31T03:55:02.203Z,1021.54
2019-03-31T03:56:02.268Z,1021.54
2019-03-31T03:57:02.487Z,1021.51
2019-03-31T03:58:01.732Z,1021.51
2019-03-31T03:59:01.935Z,1021.51
2019-03-31T04:00:05.262Z,1021.51
2019-03-31T04:01:02.059Z,1021.42
2019-03-31T04:02:02.324Z,1021.42
2019-03-31T04:03:02.546Z,1021.42
2019-03-31T04:04:01.800Z,1021.42
2019-03-31T04:05:02.138Z,1021.6
2019-03-31T04:06:02.272Z,1021.6
2019-03-31T04:07:02.482Z,1021.6
2019-03-31T04:08:01.631Z,1021.6
2019-03-31T04:09:01.923Z,1021.46
2019-03-31T04:10:02.179Z,1021.46
2019-03-31T04:11:02.387Z,1021.46
2019-03-31T04:12:02.669Z,1021.46
2019-03-31T04:13:01.854Z,1021.53
2019-03-31T04:14:02.190Z,1021.53
2019-03-31T04:15:02.296Z,1021.53
2019-03-31T04:16:02.531Z,1021.53
2019-03-31T04:17:01.796Z,1021.57
2019-03-31T04:18:02.052Z,1021.57
2019-03-31T04:19:02.357Z,1021.57
2019-03-31T04:20:02.239Z,1021.57
2019-03-31T04:21:02.483Z,1021.64
2019-03-31T04:22:01.695Z,1021.64
2019-03-31T04:23:02.000Z,1021.64
2019-03-31T04:24:02.153Z,1021.64
2019-03-31T04:25:02.552Z,1021.7
2019-03-31T04:26:01.716Z,1021.7
2019-03-31T04:27:02.119Z,1021.7
2019-03-31T04:28:02.218Z,1021.7
2019-03-31T04:29:02.020Z,1021.66
2019-03-31T04:30:02.315Z,1021.66
2019-03-31T04:31:02.582Z,1021.66
2019-03-31T04:32:01.799Z,1021.66
2019-03-31T04:33:01.945Z,1021.75
2019-03-31T04:34:02.151Z,1021.75
2019-03-31T04:35:02.500Z,1021.75
2019-03-31T04:36:02.597Z,1021.75
2019-03-31T04:37:01.827Z,1021.82
2019-03-31T04:38:02.055Z,1021.82
2019-03-31T04:39:02.349Z,1021.82
2019-03-31T04:40:02.592Z,1021.82
2019-03-31T04:41:01.755Z,1021.64
2019-03-31T04:42:01.952Z,1021.64
2019-03-31T04:43:02.203Z,1021.64
2019-03-31T04:44:02.479Z,1021.64
2019-03-31T04:45:02.640Z,1021.74
2019-03-31T04:46:01.894Z,1021.74
2019-03-31T04:47:02.093Z,1021.74
2019-03-31T04:48:02.322Z,1021.74
2019-03-31T04:49:02.617Z,1021.78
2019-03-31T04:50:01.816Z,1021.78
2019-03-31T04:51:02.080Z,1021.78
2019-03-31T04:52:02.250Z,1021.78
2019-03-31T04:53:02.439Z,1021.84
2019-03-31T04:54:01.732Z,1021.84
2019-03-31T04:55:01.890Z,1021.84
2019-03-31T04:56:02.090Z,1021.84
2019-03-31T04:57:05.019Z,1021.92
2019-03-31T04:58:02.549Z,1021.92
2019-03-31T04:59:01.837Z,1021.92
2019-03-31T05:00:05.227Z,1021.89
2019-03-31T05:01:02.043Z,1021.89
2019-03-31T05:02:02.194Z,1021.89
2019-03-31T05:03:02.435Z,1021.89
2019-03-31T05:04:05.700Z,1021.96
2019-03-31T05:05:01.950Z,1021.96
2019-03-31T05:06:02.180Z,1021.96
2019-03-31T05:07:02.337Z,1021.96
2019-03-31T05:08:01.617Z,1021.99
2019-03-31T05:09:01.919Z,1021.99
2019-03-31T05:10:02.136Z,1021.99
2019-03-31T05:11:02.318Z,1021.99
2019-03-31T05:12:02.589Z,1022.07
2019-03-31T05:13:02.002Z,1022.07
2019-03-31T05:14:02.060Z,1022.07
2019-03-31T05:15:02.587Z,1022.07
2019-03-31T05:16:02.579Z,1022.12
2019-03-31T05:17:01.795Z,1022.12
2019-03-31T05:18:02.096Z,1022.12
2019-03-31T05:19:02.300Z,1022.12
2019-03-31T05:20:02.584Z,1022.21
2019-03-31T05:21:01.780Z,1022.21
2019-03-31T05:22:01.975Z,1022.21
2019-03-31T05:23:02.164Z,1022.21
2019-03-31T05:24:02.396Z,1022.32
2019-03-31T05:25:02.655Z,1022.32
2019-03-31T05:26:01.841Z,1022.32
2019-03-31T05:27:02.084Z,1022.32
2019-03-31T05:28:02.298Z,1022.27
2019-03-31T05:29:02.454Z,1022.27
2019-03-31T05:30:02.271Z,1022.27
2019-03-31T05:31:02.582Z,1022.27
2019-03-31T05:32:01.799Z,1022.34
2019-03-31T05:33:02.018Z,1022.34
2019-03-31T05:34:02.260Z,1022.34
2019-03-31T05:35:02.567Z,1022.34
2019-03-31T05:36:01.759Z,1022.48
2019-03-31T05:37:01.949Z,1022.48
2019-03-31T05:38:02.167Z,1022.48
2019-03-31T05:39:02.365Z,1022.48
2019-03-31T05:40:01.808Z,1022.54
2019-03-31T05:41:02.023Z,1022.54
2019-03-31T05:42:02.123Z,1022.54
2019-03-31T05:43:02.443Z,1022.54
2019-03-31T05:44:06.383Z,1022.6
2019-03-31T05:45:01.884Z,1022.6
2019-03-31T05:46:02.200Z,1022.6
2019-03-31T05:47:02.305Z,1022.6
2019-03-31T05:48:02.553Z,1022.67
2019-03-31T05:49:01.848Z,1022.67
2019-03-31T05:50:02.144Z,1022.67
2019-03-31T05:51:02.280Z,1022.67
2019-03-31T05:52:02.497Z,1022.65
2019-03-31T05:53:01.652Z,1022.65
2019-03-31T05:54:01.898Z,1022.65
2019-03-31T05:55:02.164Z,1022.65
2019-03-31T05:56:02.341Z,1022.64
2019-03-31T05:57:02.533Z,1022.64
2019-03-31T05:58:01.744Z,1022.64
2019-03-31T05:59:01.915Z,1022.64
2019-03-31T06:00:05.023Z,1022.64
2019-03-31T06:01:01.850Z,1022.64
2019-03-31T06:02:01.984Z,1022.64
2019-03-31T06:03:02.213Z,1022.64
2019-03-31T06:04:02.421Z,1022.77
2019-03-31T06:05:01.667Z,1022.77
2019-03-31T06:06:01.974Z,1022.77
2019-03-31T06:07:02.130Z,1022.77
2019-03-31T06:08:02.291Z,1022.72
2019-03-31T06:09:02.531Z,1022.72
2019-03-31T06:10:01.747Z,1022.72
2019-03-31T06:11:02.039Z,1022.72
2019-03-31T06:12:02.205Z,1022.87
2019-03-31T06:13:02.446Z,1022.87
2019-03-31T06:14:01.715Z,1022.87
2019-03-31T06:15:02.087Z,1022.87
2019-03-31T06:16:02.119Z,1022.99
2019-03-31T06:17:02.158Z,1022.99
2019-03-31T06:18:02.277Z,1022.99
2019-03-31T06:19:02.533Z,1022.99
2019-03-31T06:20:01.728Z,1023.05
2019-03-31T06:21:01.918Z,1023.05
2019-03-31T06:22:02.305Z,1023.05
2019-03-31T06:23:02.427Z,1023.05
2019-03-31T06:24:01.603Z,1023.05
2019-03-31T06:25:02.191Z,1023.05
2019-03-31T06:26:02.085Z,1023.05
2019-03-31T06:27:02.431Z,1023.05
2019-03-31T06:28:02.536Z,1023.19
2019-03-31T06:29:01.673Z,1023.19
2019-03-31T06:30:01.908Z,1023.19
2019-03-31T06:31:01.880Z,1023.19
2019-03-31T06:32:02.162Z,1023.16
2019-03-31T06:33:02.331Z,1023.16
2019-03-31T06:34:02.522Z,1023.16
2019-03-31T06:35:01.773Z,1023.16
2019-03-31T06:36:02.036Z,1023.09
2019-03-31T06:37:02.308Z,1023.09
2019-03-31T06:38:02.432Z,1023.09
2019-03-31T06:39:01.745Z,1023.09
2019-03-31T06:40:01.901Z,1023.22
2019-03-31T06:41:02.150Z,1023.22
2019-03-31T06:42:02.398Z,1023.22
2019-03-31T06:43:02.468Z,1023.43
2019-03-31T06:44:01.680Z,1023.43
2019-03-31T06:45:02.506Z,1023.43
2019-03-31T06:46:01.667Z,1023.43
2019-03-31T06:47:01.879Z,1023.31
2019-03-31T06:48:02.052Z,1023.31
2019-03-31T06:49:02.299Z,1023.31
2019-03-31T06:50:02.694Z,1023.31
2019-03-31T06:51:01.788Z,1023.35
2019-03-31T06:52:02.021Z,1023.35
2019-03-31T06:53:02.175Z,1023.35
2019-03-31T06:54:02.447Z,1023.35
2019-03-31T06:55:02.656Z,1023.43
2019-03-31T06:56:01.742Z,1023.43
2019-03-31T06:57:02.035Z,1023.43
2019-03-31T06:58:02.177Z,1023.43
2019-03-31T06:59:02.403Z,1023.46
2019-03-31T07:00:03.844Z,1023.46
2019-03-31T07:01:02.599Z,1023.46
2019-03-31T07:02:03.812Z,1023.46
2019-03-31T07:03:02.047Z,1023.51
2019-03-31T07:04:02.246Z,1023.51
2019-03-31T07:05:02.583Z,1023.51
2019-03-31T07:06:01.762Z,1023.51
2019-03-31T07:07:01.975Z,1023.59
2019-03-31T07:08:02.242Z,1023.59
2019-03-31T07:09:02.426Z,1023.59
2019-03-31T07:10:02.094Z,1023.59
2019-03-31T07:11:02.089Z,1023.57
2019-03-31T07:12:02.256Z,1023.57
2019-03-31T07:13:02.475Z,1023.57
2019-03-31T07:14:01.692Z,1023.57
2019-03-31T07:15:01.925Z,1023.79
2019-03-31T07:16:02.153Z,1023.79
2019-03-31T07:17:02.348Z,1023.79
2019-03-31T07:18:02.100Z,1023.79
2019-03-31T07:19:02.152Z,1023.84
2019-03-31T07:20:02.430Z,1023.84
2019-03-31T07:21:01.672Z,1023.84
2019-03-31T07:22:01.875Z,1023.84
2019-03-31T07:23:02.036Z,1023.88
2019-03-31T07:24:02.209Z,1023.88
2019-03-31T07:25:02.478Z,1023.88
2019-03-31T07:26:01.637Z,1023.88
2019-03-31T07:27:02.228Z,1023.77
2019-03-31T07:28:02.352Z,1023.77
2019-03-31T07:29:02.561Z,1023.77
2019-03-31T07:30:01.797Z,1023.77
2019-03-31T07:31:02.003Z,1023.93
2019-03-31T07:32:02.262Z,1023.93
2019-03-31T07:33:02.211Z,1023.93
2019-03-31T07:34:02.446Z,1023.93
2019-03-31T07:35:01.708Z,1024
2019-03-31T07:36:01.868Z,1024
2019-03-31T07:37:02.144Z,1024
2019-03-31T07:38:02.305Z,1024
2019-03-31T07:39:03.129Z,1023.95
2019-03-31T07:40:02.350Z,1023.95
2019-03-31T07:41:13.692Z,1023.95
2019-03-31T07:42:03.085Z,1023.95
2019-03-31T07:43:02.501Z,1023.91
2019-03-31T07:44:01.607Z,1023.91
2019-03-31T07:45:01.986Z,1023.91
2019-03-31T07:46:02.135Z,1023.91
2019-03-31T07:47:02.398Z,1024.06
2019-03-31T07:48:01.684Z,1024.06
2019-03-31T07:49:01.843Z,1024.06
2019-03-31T07:50:02.222Z,1024.06
2019-03-31T07:51:02.294Z,1024.02
2019-03-31T07:52:02.443Z,1024.02
2019-03-31T07:53:01.713Z,1024.02
2019-03-31T07:54:01.930Z,1024.02
2019-03-31T07:55:02.282Z,1024.18
2019-03-31T07:56:02.445Z,1024.18
2019-03-31T07:57:01.688Z,1024.18
2019-03-31T07:58:01.856Z,1024.18
2019-03-31T07:59:02.150Z,1024.17
2019-03-31T08:00:03.911Z,1024.17
2019-03-31T08:01:01.620Z,1024.17
2019-03-31T08:02:02.191Z,1024.17
2019-03-31T08:03:02.388Z,1024.16
2019-03-31T08:04:01.597Z,1024.16
2019-03-31T08:05:01.887Z,1024.16
2019-03-31T08:06:01.858Z,1024.16
2019-03-31T08:07:02.089Z,1024.21
2019-03-31T08:08:02.179Z,1024.21
2019-03-31T08:09:02.464Z,1024.21
2019-03-31T08:10:02.668Z,1024.21
2019-03-31T08:11:01.885Z,1024.22
2019-03-31T08:12:02.037Z,1024.22
2019-03-31T08:13:02.252Z,1024.22
2019-03-31T08:14:02.418Z,1024.22
2019-03-31T08:15:01.700Z,1024.24
2019-03-31T08:16:02.469Z,1024.24
2019-03-31T08:17:01.643Z,1024.24
2019-03-31T08:18:01.893Z,1024.24
2019-03-31T08:19:02.017Z,1024.35
2019-03-31T08:20:02.268Z,1024.35
2019-03-31T08:21:02.471Z,1024.35
2019-03-31T08:22:02.475Z,1024.35
2019-03-31T08:23:01.706Z,1024.43
2019-03-31T08:24:02.029Z,1024.43
2019-03-31T08:25:02.042Z,1024.43
2019-03-31T08:26:02.212Z,1024.37
2019-03-31T08:27:05.976Z,1024.37
2019-03-31T08:28:01.717Z,1024.37
2019-03-31T08:29:01.905Z,1024.37
2019-03-31T08:30:02.164Z,1024.5
2019-03-31T08:31:02.075Z,1024.5
2019-03-31T08:32:02.374Z,1024.5
2019-03-31T08:33:01.607Z,1024.5
2019-03-31T08:34:01.806Z,1024.47
2019-03-31T08:35:01.958Z,1024.47
2019-03-31T08:36:02.282Z,1024.47
2019-03-31T08:37:02.381Z,1024.47
2019-03-31T08:38:01.586Z,1024.57
2019-03-31T08:39:01.873Z,1024.57
2019-03-31T08:40:02.143Z,1024.57
2019-03-31T08:41:02.352Z,1024.57
2019-03-31T08:42:02.531Z,1024.63
2019-03-31T08:43:01.764Z,1024.63
2019-03-31T08:44:01.983Z,1024.63
2019-03-31T08:45:02.311Z,1024.63
2019-03-31T08:46:02.470Z,1024.66
2019-03-31T08:47:02.560Z,1024.66
2019-03-31T08:48:01.758Z,1024.66
2019-03-31T08:49:02.041Z,1024.66
2019-03-31T08:50:03.060Z,1024.74
2019-03-31T08:51:02.354Z,1024.74
2019-03-31T08:52:02.478Z,1024.74
2019-03-31T08:53:01.691Z,1024.74
2019-03-31T08:54:01.987Z,1024.76
2019-03-31T08:55:02.249Z,1024.76
2019-03-31T08:56:02.467Z,1024.76
2019-03-31T08:57:01.663Z,1024.76
2019-03-31T08:58:01.894Z,1024.72
2019-03-31T08:59:02.103Z,1024.72
2019-03-31T09:00:07.991Z,1024.72
2019-03-31T09:01:01.848Z,1024.72
2019-03-31T09:02:03.793Z,1024.77
2019-03-31T09:03:02.126Z,1024.77
2019-03-31T09:04:02.391Z,1024.77
2019-03-31T09:05:02.672Z,1024.77
2019-03-31T09:06:03.039Z,1024.84
2019-03-31T09:07:02.098Z,1024.84
2019-03-31T09:08:02.485Z,1024.84
2019-03-31T09:09:01.650Z,1024.84
2019-03-31T09:10:01.862Z,1024.96
2019-03-31T09:11:02.160Z,1024.96
2019-03-31T09:12:02.283Z,1024.96
2019-03-31T09:13:02.555Z,1024.96
2019-03-31T09:14:01.786Z,1024.97
2019-03-31T09:15:02.084Z,1024.97
2019-03-31T09:16:02.307Z,1024.97
2019-03-31T09:17:02.530Z,1024.97
2019-03-31T09:18:01.690Z,1024.92
2019-03-31T09:19:01.877Z,1024.92
2019-03-31T09:20:02.155Z,1024.92
2019-03-31T09:21:02.375Z,1024.92
2019-03-31T09:22:02.552Z,1024.99
2019-03-31T09:23:01.742Z,1024.99
2019-03-31T09:24:01.929Z,1024.99
2019-03-31T09:25:02.214Z,1024.99
2019-03-31T09:26:02.458Z,1025.09
2019-03-31T09:27:02.589Z,1025.09
2019-03-31T09:28:01.836Z,1025.09
2019-03-31T09:29:01.991Z,1025.09
2019-03-31T09:30:02.281Z,1025.16
2019-03-31T09:31:02.486Z,1025.16
2019-03-31T09:32:01.741Z,1025.16
2019-03-31T09:33:01.869Z,1025.16
2019-03-31T09:34:02.110Z,1025.08
2019-03-31T09:35:02.281Z,1025.08
2019-03-31T09:36:17.080Z,1025.08
2019-03-31T09:37:01.578Z,1025.08
2019-03-31T09:38:01.806Z,1024.98
2019-03-31T09:39:02.016Z,1024.98
2019-03-31T09:40:02.275Z,1024.98
2019-03-31T09:41:02.442Z,1024.98
2019-03-31T09:42:01.721Z,1025.03
2019-03-31T09:43:01.937Z,1025.03
2019-03-31T09:44:02.295Z,1025.03
2019-03-31T09:45:02.565Z,1025.03
2019-03-31T09:46:01.764Z,1025.14
2019-03-31T09:47:02.026Z,1025.14
2019-03-31T09:48:02.237Z,1025.14
2019-03-31T09:49:02.461Z,1025.14
2019-03-31T09:50:01.776Z,1025.13
2019-03-31T09:51:01.949Z,1025.13
2019-03-31T09:52:02.103Z,1025.13
2019-03-31T09:53:02.051Z,1025.13
2019-03-31T09:54:02.217Z,1025
2019-03-31T09:55:02.593Z,1025
2019-03-31T09:56:01.829Z,1025
2019-03-31T09:57:02.018Z,1025
2019-03-31T09:58:02.247Z,1025.01
2019-03-31T09:59:02.330Z,1025.01
2019-03-31T10:00:04.223Z,1025.01
2019-03-31T10:01:01.997Z,1025.01
2019-03-31T10:02:02.156Z,1025.16
2019-03-31T10:03:02.390Z,1025.16
2019-03-31T10:04:01.601Z,1025.16
2019-03-31T10:05:01.851Z,1025.16
2019-03-31T10:06:11.478Z,1024.97
2019-03-31T10:07:02.233Z,1024.97
2019-03-31T10:08:02.388Z,1024.97
2019-03-31T10:09:01.608Z,1025.04
2019-03-31T10:10:01.935Z,1025.04
2019-03-31T10:11:03.448Z,1025.04
2019-03-31T10:12:02.235Z,1025.04
2019-03-31T10:13:02.510Z,1025.07
2019-03-31T10:14:01.772Z,1025.07
2019-03-31T10:15:01.962Z,1025.07
2019-03-31T10:16:02.152Z,1025.07
2019-03-31T10:17:02.384Z,1025.08
2019-03-31T10:18:02.620Z,1025.08
2019-03-31T10:19:01.787Z,1025.08
2019-03-31T10:20:02.057Z,1025.08
2019-03-31T10:21:02.134Z,1025.2
2019-03-31T10:22:02.313Z,1025.2
2019-03-31T10:23:02.630Z,1025.2
2019-03-31T10:24:01.764Z,1025.2
2019-03-31T10:25:01.963Z,1025.13
2019-03-31T10:26:02.100Z,1025.13
2019-03-31T10:27:02.329Z,1025.13
2019-03-31T10:28:02.531Z,1025.13
2019-03-31T10:29:01.744Z,1025.12
2019-03-31T10:30:02.045Z,1025.12
2019-03-31T10:31:02.095Z,1025.12
2019-03-31T10:32:02.331Z,1025.12
2019-03-31T10:33:02.383Z,1025.13
2019-03-31T10:34:01.608Z,1025.13
2019-03-31T10:35:02.039Z,1025.13
2019-03-31T10:36:02.076Z,1025.13
2019-03-31T10:37:02.318Z,1025.12
2019-03-31T10:38:02.428Z,1025.12
2019-03-31T10:39:01.639Z,1025.12
2019-03-31T10:40:01.856Z,1025.12
2019-03-31T10:41:01.995Z,1025.21
2019-03-31T10:42:02.220Z,1025.21
2019-03-31T10:43:02.362Z,1025.21
2019-03-31T10:44:02.556Z,1025.21
2019-03-31T10:45:01.830Z,1025.24
2019-03-31T10:46:02.015Z,1025.24
2019-03-31T10:47:02.280Z,1025.24
2019-03-31T10:48:02.398Z,1025.24
2019-03-31T10:49:01.667Z,1025.27
2019-03-31T10:50:01.847Z,1025.27
2019-03-31T10:51:02.038Z,1025.27
2019-03-31T10:52:02.264Z,1025.27
2019-03-31T10:53:02.410Z,1025.25
2019-03-31T10:54:05.022Z,1025.25
2019-03-31T10:55:02.460Z,1025.25
2019-03-31T10:56:01.646Z,1025.25
2019-03-31T10:57:01.907Z,1025.36
2019-03-31T10:58:02.088Z,1025.36
2019-03-31T10:59:02.226Z,1025.36
2019-03-31T11:00:04.484Z,1025.36
2019-03-31T11:01:02.194Z,1025.46
2019-03-31T11:02:02.467Z,1025.46
2019-03-31T11:03:02.364Z,1025.46
2019-03-31T11:04:02.595Z,1025.46
2019-03-31T11:05:01.870Z,1025.41
2019-03-31T11:06:02.058Z,1025.41
2019-03-31T11:07:04.047Z,1025.41
2019-03-31T11:08:02.503Z,1025.41
2019-03-31T11:09:01.657Z,1025.47
2019-03-31T11:10:02.080Z,1025.47
2019-03-31T11:11:02.300Z,1025.47
2019-03-31T11:12:02.399Z,1025.47
2019-03-31T11:13:01.619Z,1025.48
2019-03-31T11:14:01.850Z,1025.48
2019-03-31T11:15:02.198Z,1025.48
2019-03-31T11:16:02.397Z,1025.48
2019-03-31T11:17:01.640Z,1025.39
2019-03-31T11:18:01.872Z,1025.39
2019-03-31T11:19:02.100Z,1025.39
2019-03-31T11:20:02.450Z,1025.39
2019-03-31T11:21:01.667Z,1025.43
2019-03-31T11:22:01.911Z,1025.43
2019-03-31T11:23:02.054Z,1025.43
2019-03-31T11:24:02.260Z,1025.43
2019-03-31T11:25:02.559Z,1025.31
2019-03-31T11:26:01.675Z,1025.31
2019-03-31T11:27:01.910Z,1025.31
2019-03-31T11:28:02.169Z,1025.31
2019-03-31T11:29:02.463Z,1025.29
2019-03-31T11:30:02.598Z,1025.29
2019-03-31T11:31:01.820Z,1025.29
2019-03-31T11:32:01.998Z,1025.29
2019-03-31T11:33:02.216Z,1025.33
2019-03-31T11:34:02.522Z,1025.33
2019-03-31T11:35:01.887Z,1025.33
2019-03-31T11:36:01.898Z,1025.33
2019-03-31T11:37:14.127Z,1025.39
2019-03-31T11:38:02.375Z,1025.39
2019-03-31T11:39:01.695Z,1025.39
2019-03-31T11:40:02.009Z,1025.39
2019-03-31T11:41:02.185Z,1025.25
2019-03-31T11:42:02.396Z,1025.25
2019-03-31T11:43:01.641Z,1025.25
2019-03-31T11:44:01.880Z,1025.25
2019-03-31T11:45:02.171Z,1025.22
2019-03-31T11:46:02.287Z,1025.22
2019-03-31T11:47:02.553Z,1025.22
2019-03-31T11:48:01.710Z,1025.22
2019-03-31T11:49:01.901Z,1025.31
2019-03-31T11:50:01.982Z,1025.31
2019-03-31T11:51:02.198Z,1025.31
2019-03-31T11:52:02.464Z,1025.43
2019-03-31T11:53:01.650Z,1025.43
2019-03-31T11:54:01.812Z,1025.43
2019-03-31T11:55:02.114Z,1025.43
2019-03-31T11:56:02.170Z,1025.37
2019-03-31T11:57:02.346Z,1025.37
2019-03-31T11:58:02.159Z,1025.37
2019-03-31T11:59:02.373Z,1025.37
2019-03-31T12:00:03.546Z,1025.52
2019-03-31T12:01:02.345Z,1025.52
2019-03-31T12:02:02.603Z,1025.52
2019-03-31T12:03:01.868Z,1025.52
2019-03-31T12:04:02.094Z,1025.53
2019-03-31T12:05:02.397Z,1025.53
2019-03-31T12:06:01.615Z,1025.53
2019-03-31T12:07:01.820Z,1025.53